createdAt,value
2023-05-23T00:00:23.596Z,119.90
2023-05-23T00:02:51.141Z,120.10
2023-05-23T00:05:18.279Z,121.07
2023-05-23T00:07:46.098Z,121.00
2023-05-23T00:10:14.363Z,120.17
2023-05-23T00:12:42.405Z,121.27
2023-05-23T00:15:10.127Z,120.67
2023-05-23T00:17:38.184Z,120.80
2023-05-23T00:20:09.552Z,120.67
2023-05-23T00:22:39.662Z,121.27
2023-05-23T00:25:07.994Z,120.83
2023-05-23T00:27:36.046Z,120.73
2023-05-23T00:30:04.385Z,120.33
2023-05-23T00:32:31.408Z,121.30
2023-05-23T00:34:58.909Z,120.63
2023-05-23T00:37:26.200Z,121.30
2023-05-23T00:39:53.336Z,120.07
2023-05-23T00:42:20.968Z,120.87
2023-05-23T00:44:48.522Z,120.70
2023-05-23T00:47:16.001Z,120.63
2023-05-23T00:49:43.834Z,120.27
2023-05-23T00:52:11.554Z,120.40
2023-05-23T00:54:40.024Z,119.87
2023-05-23T00:57:07.787Z,120.40
2023-05-23T00:59:37.981Z,120.23
2023-05-23T01:02:05.484Z,119.67
2023-05-23T01:04:34.118Z,119.67
2023-05-23T01:07:02.013Z,119.77
2023-05-23T01:09:30.011Z,120.13
2023-05-23T01:12:09.709Z,119.73
2023-05-23T01:15:01.706Z,120.00
2023-05-23T01:18:08.450Z,119.80
2023-05-23T01:20:50.013Z,120.10
2023-05-23T01:24:22.448Z,119.53
2023-05-23T01:27:29.882Z,119.57
2023-05-23T01:30:05.007Z,119.93
2023-05-23T01:32:32.934Z,119.70
2023-05-23T01:35:00.989Z,119.60
2023-05-23T01:37:29.645Z,120.17
2023-05-23T01:39:57.213Z,119.63
2023-05-23T01:42:24.671Z,119.63
2023-05-23T01:44:52.725Z,119.60
2023-05-23T01:47:21.285Z,120.37
2023-05-23T01:49:48.973Z,119.90
2023-05-23T01:52:17.076Z,120.03
2023-05-23T01:54:45.185Z,120.10
2023-05-23T01:57:13.737Z,120.03
2023-05-23T01:59:40.921Z,119.97
2023-05-23T02:02:08.128Z,120.30
2023-05-23T02:04:35.962Z,119.90
2023-05-23T02:07:03.043Z,119.70
2023-05-23T02:09:30.157Z,120.00
2023-05-23T02:11:57.186Z,119.83
2023-05-23T02:14:26.405Z,120.30
2023-05-23T02:16:54.062Z,120.30
2023-05-23T02:19:21.255Z,120.03
2023-05-23T02:21:48.749Z,120.57
2023-05-23T02:24:16.342Z,119.97
2023-05-23T02:26:45.635Z,120.60
2023-05-23T02:29:13.119Z,120.40
2023-05-23T02:31:41.092Z,120.50
2023-05-23T02:34:08.139Z,120.10
2023-05-23T02:36:37.142Z,119.37
2023-05-23T02:39:05.474Z,120.27
2023-05-23T02:41:33.633Z,120.30
2023-05-23T02:44:00.803Z,120.40
2023-05-23T02:46:28.179Z,119.90
2023-05-23T02:48:55.331Z,120.40
2023-05-23T02:51:22.442Z,120.07
2023-05-23T02:53:50.063Z,120.70
2023-05-23T02:56:18.768Z,119.77
2023-05-23T02:58:46.472Z,120.40
2023-05-23T03:01:13.978Z,121.03
2023-05-23T03:03:42.017Z,120.60
2023-05-23T03:06:14.229Z,121.47
2023-05-23T03:08:42.404Z,120.57
2023-05-23T03:11:09.774Z,121.07
2023-05-23T03:13:36.941Z,121.17
2023-05-23T03:16:04.300Z,121.13
2023-05-23T03:18:31.394Z,120.47
2023-05-23T03:20:59.139Z,121.00
2023-05-23T03:23:26.243Z,120.77
2023-05-23T03:25:53.273Z,120.30
2023-05-23T03:28:21.312Z,120.77
2023-05-23T03:30:48.331Z,120.03
2023-05-23T03:33:15.891Z,119.90
2023-05-23T03:35:44.601Z,119.93
2023-05-23T03:38:11.690Z,120.27
2023-05-23T03:40:38.665Z,120.73
2023-05-23T03:43:07.147Z,120.67
2023-05-23T03:45:36.717Z,120.50
2023-05-23T03:48:09.763Z,119.80
2023-05-23T03:50:37.148Z,120.10
2023-05-23T03:53:04.286Z,119.57
2023-05-23T03:55:32.404Z,119.50
2023-05-23T03:58:00.238Z,120.20
2023-05-23T04:00:27.623Z,120.17
2023-05-23T04:02:54.743Z,120.03
2023-05-23T04:05:24.870Z,120.00
2023-05-23T04:07:52.466Z,119.43
2023-05-23T04:10:20.162Z,120.40
2023-05-23T04:12:48.523Z,119.80
2023-05-23T04:15:21.329Z,120.33
2023-05-23T04:18:00.632Z,119.83
2023-05-23T04:20:28.545Z,119.83
2023-05-23T04:22:55.901Z,119.27
2023-05-23T04:25:25.097Z,120.00
2023-05-23T04:28:05.226Z,119.67
2023-05-23T04:30:33.571Z,119.40
2023-05-23T04:33:00.985Z,119.30
2023-05-23T04:35:29.437Z,119.60
2023-05-23T04:37:57.166Z,119.50
2023-05-23T04:40:26.971Z,119.27
2023-05-23T04:43:17.191Z,119.30
2023-05-23T04:45:57.713Z,119.27
2023-05-23T04:48:36.167Z,119.27
2023-05-23T04:51:08.442Z,118.67
2023-05-23T04:53:42.886Z,118.87
2023-05-23T04:56:12.278Z,119.10
2023-05-23T04:58:44.271Z,118.40
2023-05-23T05:01:12.473Z,118.67
2023-05-23T05:03:40.138Z,118.03
2023-05-23T05:06:07.665Z,118.37
2023-05-23T05:08:36.793Z,117.70
2023-05-23T05:11:05.055Z,117.60
2023-05-23T05:13:33.587Z,118.00
2023-05-23T05:16:00.930Z,117.70
2023-05-23T05:18:28.589Z,118.00
2023-05-23T05:20:58.450Z,117.87
2023-05-23T05:23:30.156Z,117.47
2023-05-23T05:25:58.846Z,117.33
2023-05-23T05:28:26.308Z,118.27
2023-05-23T05:30:54.674Z,117.73
2023-05-23T05:33:28.172Z,117.57
2023-05-23T05:36:07.169Z,117.47
2023-05-23T05:38:34.864Z,118.37
2023-05-23T05:41:02.956Z,118.40
2023-05-23T05:43:35.778Z,118.17
2023-05-23T05:46:02.920Z,117.97
2023-05-23T05:48:30.923Z,118.13
2023-05-23T05:51:03.189Z,118.37
2023-05-23T05:53:33.406Z,118.67
2023-05-23T05:56:02.767Z,117.63
2023-05-23T05:58:33.378Z,118.63
2023-05-23T06:01:05.589Z,117.43
2023-05-23T06:03:33.991Z,118.37
2023-05-23T06:06:02.043Z,118.63
2023-05-23T06:08:30.237Z,118.37
2023-05-23T06:10:57.724Z,118.53
2023-05-23T06:13:26.246Z,118.83
2023-05-23T06:15:54.603Z,118.80
2023-05-23T06:18:22.556Z,118.77
2023-05-23T06:20:51.161Z,118.60
2023-05-23T06:23:20.081Z,119.13
2023-05-23T06:25:48.090Z,118.83
2023-05-23T06:28:15.303Z,119.07
2023-05-23T06:30:42.726Z,118.90
2023-05-23T06:33:11.686Z,118.10
2023-05-23T06:35:38.740Z,118.00
2023-05-23T06:38:05.799Z,117.77
2023-05-23T06:40:33.674Z,117.90
2023-05-23T06:43:01.350Z,117.90
2023-05-23T06:45:41.489Z,117.40
2023-05-23T06:48:13.699Z,117.90
2023-05-23T06:50:41.800Z,117.73
2023-05-23T06:53:10.996Z,117.67
2023-05-23T06:55:38.052Z,118.30
2023-05-23T06:58:06.964Z,118.50
2023-05-23T07:00:36.210Z,117.97
2023-05-23T07:03:21.628Z,117.80
2023-05-23T07:05:49.695Z,117.80
2023-05-23T07:08:18.224Z,118.17
2023-05-23T07:10:57.275Z,117.87
2023-05-23T07:13:33.757Z,117.97
2023-05-23T07:16:01.023Z,118.27
2023-05-23T07:18:28.143Z,118.67
2023-05-23T07:20:57.774Z,118.30
2023-05-23T07:23:25.709Z,118.23
2023-05-23T07:26:01.841Z,117.90
2023-05-23T07:28:39.184Z,117.97
2023-05-23T07:31:09.193Z,118.40
2023-05-23T07:33:36.858Z,118.60
2023-05-23T07:36:06.036Z,118.60
2023-05-23T07:38:33.944Z,117.50
2023-05-23T07:41:10.853Z,117.93
2023-05-23T07:43:39.597Z,117.90
2023-05-23T07:46:07.477Z,117.97
2023-05-23T07:48:34.529Z,117.80
2023-05-23T07:51:01.732Z,117.40
2023-05-23T07:53:29.426Z,116.97
2023-05-23T07:55:58.230Z,116.87
2023-05-23T07:58:28.831Z,117.63
2023-05-23T08:03:38.823Z,117.20
2023-05-23T08:06:11.912Z,117.60
2023-05-23T08:08:39.846Z,117.77
2023-05-23T08:11:09.409Z,116.97
2023-05-23T08:13:43.155Z,116.80
2023-05-23T08:16:30.283Z,117.23
2023-05-23T08:18:57.478Z,117.07
2023-05-23T08:21:24.679Z,117.10
2023-05-23T08:23:52.942Z,116.87
2023-05-23T08:26:20.281Z,116.40
2023-05-23T08:28:48.986Z,117.27
2023-05-23T08:31:16.670Z,116.10
2023-05-23T08:33:44.591Z,117.60
2023-05-23T08:36:12.485Z,116.97
2023-05-23T08:38:40.278Z,117.47
2023-05-23T08:41:26.858Z,117.30
2023-05-23T08:44:00.988Z,117.47
2023-05-23T08:46:45.741Z,117.57
2023-05-23T08:49:20.078Z,116.53
2023-05-23T08:51:48.797Z,118.07
2023-05-23T08:54:22.276Z,117.90
2023-05-23T08:56:52.099Z,116.87
2023-05-23T08:59:20.304Z,117.60
2023-05-23T09:01:50.365Z,117.73
2023-05-23T09:04:18.060Z,116.47
2023-05-23T09:07:00.227Z,115.97
2023-05-23T09:09:28.604Z,115.97
2023-05-23T09:12:00.275Z,115.67
2023-05-23T09:14:31.666Z,116.70
2023-05-23T09:17:04.518Z,115.90
2023-05-23T09:19:33.314Z,115.60
2023-05-23T09:22:13.474Z,116.47
2023-05-23T09:24:55.541Z,116.17
2023-05-23T09:27:24.029Z,116.70
2023-05-23T09:29:51.723Z,116.47
2023-05-23T09:32:21.357Z,116.57
2023-05-23T09:35:04.428Z,116.60
2023-05-23T09:37:46.734Z,115.70
2023-05-23T09:40:15.844Z,116.30
2023-05-23T09:42:51.518Z,114.70
2023-05-23T09:45:19.240Z,115.10
2023-05-23T09:47:53.405Z,115.37
2023-05-23T09:50:23.830Z,112.40
2023-05-23T09:52:54.173Z,114.87
2023-05-23T09:55:21.710Z,115.43
2023-05-23T09:57:57.551Z,114.80
2023-05-23T10:00:25.837Z,115.67
2023-05-23T10:03:14.932Z,114.60
2023-05-23T10:05:48.973Z,113.90
2023-05-23T10:08:20.232Z,114.53
2023-05-23T10:11:16.553Z,113.33
2023-05-23T10:13:50.606Z,113.47
2023-05-23T10:16:56.491Z,114.50
2023-05-23T10:19:39.333Z,114.67
2023-05-23T10:22:11.301Z,115.57
2023-05-23T10:24:39.199Z,115.57
2023-05-23T10:27:07.868Z,114.60
2023-05-23T10:29:36.692Z,113.00
2023-05-23T10:32:06.583Z,114.70
2023-05-23T10:35:13.599Z,112.97
2023-05-23T10:37:57.131Z,112.70
2023-05-23T10:40:37.917Z,113.80
2023-05-23T10:43:18.018Z,115.90
2023-05-23T10:45:46.978Z,119.10
2023-05-23T10:48:41.464Z,112.90
2023-05-23T10:51:11.889Z,112.77
2023-05-23T10:53:44.229Z,113.63
2023-05-23T10:56:23.365Z,112.90
2023-05-23T10:58:59.888Z,113.17
2023-05-23T11:01:27.697Z,112.73
2023-05-23T11:04:18.451Z,113.23
2023-05-23T11:06:45.552Z,112.90
2023-05-23T11:09:22.023Z,113.90
2023-05-23T11:11:59.056Z,114.47
2023-05-23T11:14:37.747Z,114.60
2023-05-23T11:17:17.656Z,113.90
2023-05-23T11:20:09.632Z,113.50
2023-05-23T11:22:37.263Z,113.57
2023-05-23T11:25:11.844Z,113.80
2023-05-23T11:27:41.870Z,114.80
2023-05-23T11:30:16.116Z,114.53
2023-05-23T11:32:52.935Z,115.10
2023-05-23T11:35:21.348Z,113.97
2023-05-23T11:37:49.130Z,112.77
2023-05-23T11:40:41.265Z,114.97
2023-05-23T11:43:17.713Z,114.17
2023-05-23T11:45:46.794Z,114.97
2023-05-23T11:48:17.898Z,113.37
2023-05-23T11:50:54.199Z,115.60
2023-05-23T11:53:25.256Z,115.10
2023-05-23T11:56:00.128Z,113.57
2023-05-23T11:58:35.898Z,113.17
2023-05-23T12:01:10.008Z,114.07
2023-05-23T12:03:49.959Z,113.90
2023-05-23T12:06:25.116Z,115.90
2023-05-23T12:08:52.940Z,114.90
2023-05-23T12:11:20.137Z,114.60
2023-05-23T12:13:47.303Z,116.57
2023-05-23T12:16:18.196Z,116.17
2023-05-23T12:18:45.530Z,117.57
2023-05-23T12:21:12.974Z,114.87
2023-05-23T12:23:42.083Z,115.67
2023-05-23T12:26:12.151Z,114.90
2023-05-23T12:28:45.667Z,114.77
2023-05-23T12:31:22.881Z,114.47
2023-05-23T12:33:53.627Z,114.80
2023-05-23T12:36:29.619Z,114.03
2023-05-23T12:39:03.885Z,114.10
2023-05-23T12:41:33.374Z,113.83
2023-05-23T12:44:02.229Z,115.10
2023-05-23T12:46:30.746Z,113.50
2023-05-23T12:48:57.801Z,115.37
2023-05-23T12:51:25.446Z,114.07
2023-05-23T12:53:52.569Z,114.67
2023-05-23T12:56:22.397Z,115.77
2023-05-23T12:58:50.039Z,115.00
2023-05-23T13:01:17.509Z,113.27
2023-05-23T13:03:45.155Z,115.47
2023-05-23T13:06:12.388Z,113.90
2023-05-23T13:08:39.933Z,116.10
2023-05-23T13:11:07.376Z,115.30
2023-05-23T13:13:34.370Z,116.50
2023-05-23T13:16:01.898Z,116.20
2023-05-23T13:18:29.458Z,115.17
2023-05-23T13:20:56.603Z,115.97
2023-05-23T13:23:25.707Z,115.07
2023-05-23T13:25:53.817Z,116.07
2023-05-23T13:28:21.321Z,114.53
2023-05-23T13:30:49.554Z,116.57
2023-05-23T13:33:17.091Z,116.80
2023-05-23T13:35:44.650Z,116.43
2023-05-23T13:38:12.963Z,115.10
2023-05-23T13:40:40.752Z,116.20
2023-05-23T13:43:08.422Z,115.80
2023-05-23T13:45:35.541Z,115.73
2023-05-23T13:48:03.072Z,113.97
2023-05-23T13:50:30.724Z,114.63
2023-05-23T13:52:58.261Z,117.07
2023-05-23T13:55:25.797Z,116.77
2023-05-23T13:57:53.259Z,116.23
2023-05-23T14:00:20.730Z,116.67
2023-05-23T14:02:48.309Z,117.13
2023-05-23T14:05:15.910Z,116.03
2023-05-23T14:07:47.018Z,116.10
2023-05-23T14:10:15.342Z,116.87
2023-05-23T14:12:42.322Z,116.17
2023-05-23T14:15:11.229Z,116.00
2023-05-23T14:17:38.762Z,116.57
2023-05-23T14:20:08.027Z,116.17
2023-05-23T14:22:35.663Z,115.03
2023-05-23T14:25:03.283Z,116.80
2023-05-23T14:27:32.417Z,114.60
2023-05-23T14:29:59.978Z,116.67
2023-05-23T14:32:27.191Z,116.10
2023-05-23T14:34:55.267Z,116.07
2023-05-23T14:37:22.800Z,115.63
2023-05-23T14:39:50.374Z,116.47
2023-05-23T14:42:17.834Z,114.87
2023-05-23T14:44:47.456Z,115.53
2023-05-23T14:47:14.477Z,112.80
2023-05-23T14:49:41.960Z,114.77
2023-05-23T14:52:09.485Z,115.27
2023-05-23T14:54:36.505Z,114.37
2023-05-23T14:57:04.287Z,115.20
2023-05-23T14:59:31.817Z,113.93
2023-05-23T15:01:58.987Z,115.10
2023-05-23T15:04:27.127Z,116.20
2023-05-23T15:06:54.703Z,117.13
2023-05-23T15:09:22.667Z,116.87
2023-05-23T15:11:49.997Z,116.97
2023-05-23T15:14:17.178Z,116.40
2023-05-23T15:16:46.105Z,117.07
2023-05-23T15:19:13.812Z,116.33
2023-05-23T15:21:50.000Z,115.57
2023-05-23T15:24:18.907Z,116.27
2023-05-23T15:26:47.043Z,114.17
2023-05-23T15:29:15.960Z,116.03
2023-05-23T15:31:44.843Z,116.20
2023-05-23T15:34:12.091Z,115.90
2023-05-23T15:36:40.839Z,116.37
2023-05-23T15:39:08.299Z,116.07
2023-05-23T15:41:35.871Z,116.97
2023-05-23T15:44:03.503Z,116.70
2023-05-23T15:46:31.011Z,116.70
2023-05-23T15:49:03.136Z,116.67
2023-05-23T15:51:38.160Z,117.07
2023-05-23T15:54:05.606Z,117.10
2023-05-23T15:56:32.657Z,116.80
2023-05-23T15:59:00.205Z,116.57
2023-05-23T16:01:27.700Z,116.77
2023-05-23T16:03:55.973Z,116.40
2023-05-23T16:06:23.847Z,116.07
2023-05-23T16:08:51.159Z,115.73
2023-05-23T16:11:18.698Z,114.27
2023-05-23T16:13:46.361Z,115.87
2023-05-23T16:16:13.595Z,116.70
2023-05-23T16:18:41.268Z,116.87
2023-05-23T16:21:08.756Z,116.30
2023-05-23T16:23:36.305Z,116.60
2023-05-23T16:26:03.908Z,116.97
2023-05-23T16:28:31.376Z,116.87
2023-05-23T16:30:58.952Z,117.00
2023-05-23T16:33:26.068Z,116.50
2023-05-23T16:35:53.574Z,116.97
2023-05-23T16:38:20.793Z,116.70
2023-05-23T16:40:48.385Z,117.30
2023-05-23T16:43:16.205Z,117.47
2023-05-23T16:45:43.621Z,117.40
2023-05-23T16:48:12.088Z,117.10
2023-05-23T16:50:40.050Z,117.47
2023-05-23T16:53:07.703Z,117.93
2023-05-23T16:55:34.769Z,117.77
2023-05-23T16:58:02.195Z,117.87
2023-05-23T17:00:29.749Z,118.70
2023-05-23T17:02:57.262Z,119.77
2023-05-23T17:05:25.219Z,119.60
2023-05-23T17:07:52.652Z,119.47
2023-05-23T17:10:20.588Z,119.60
2023-05-23T17:12:48.094Z,119.97
2023-05-23T17:15:15.300Z,120.37
2023-05-23T17:17:42.513Z,119.93
2023-05-23T17:20:11.496Z,119.80
2023-05-23T17:22:38.984Z,120.77
2023-05-23T17:25:07.044Z,120.10
2023-05-23T17:27:34.701Z,120.37
2023-05-23T17:30:04.963Z,120.17
2023-05-23T17:32:32.948Z,120.50
2023-05-23T17:34:59.972Z,119.97
2023-05-23T17:37:27.535Z,119.83
2023-05-23T17:39:57.404Z,120.07
2023-05-23T17:42:25.400Z,120.67
2023-05-23T17:44:52.910Z,120.77
2023-05-23T17:47:21.222Z,119.87
2023-05-23T17:49:48.636Z,120.10
2023-05-23T17:52:16.471Z,120.40
2023-05-23T17:54:43.951Z,120.77
2023-05-23T17:57:11.251Z,120.57
2023-05-23T17:59:38.321Z,120.57
2023-05-23T18:02:06.271Z,120.33
2023-05-23T18:04:33.644Z,120.37
2023-05-23T18:07:00.845Z,119.97
2023-05-23T18:09:28.512Z,119.87
2023-05-23T18:11:56.435Z,120.20
2023-05-23T18:14:23.580Z,120.20
2023-05-23T18:16:53.607Z,120.17
2023-05-23T18:19:20.761Z,119.53
2023-05-23T18:21:48.256Z,119.23
2023-05-23T18:24:15.364Z,118.80
2023-05-23T18:26:43.114Z,119.50
2023-05-23T18:29:10.936Z,119.83
2023-05-23T18:31:38.283Z,119.87
2023-05-23T18:34:05.907Z,119.40
2023-05-23T18:36:33.161Z,119.60
2023-05-23T18:39:00.629Z,119.13
2023-05-23T18:41:28.023Z,119.30
2023-05-23T18:43:55.987Z,119.57
2023-05-23T18:46:25.339Z,119.27
2023-05-23T18:48:52.992Z,119.90
2023-05-23T18:51:20.911Z,119.47
2023-05-23T18:53:48.127Z,119.57
2023-05-23T18:56:16.023Z,119.27
2023-05-23T18:58:46.098Z,119.23
2023-05-23T19:01:14.005Z,119.20
2023-05-23T19:03:41.687Z,119.50
2023-05-23T19:06:08.945Z,119.63
2023-05-23T19:08:36.017Z,119.70
2023-05-23T19:11:04.847Z,119.60
2023-05-23T19:13:31.927Z,119.90
2023-05-23T19:15:59.118Z,119.17
2023-05-23T19:18:26.420Z,120.00
2023-05-23T19:20:56.470Z,119.20
2023-05-23T19:23:24.022Z,119.37
2023-05-23T19:25:51.359Z,119.60
2023-05-23T19:28:19.760Z,119.77
2023-05-23T19:30:46.982Z,119.07
2023-05-23T19:33:15.534Z,119.43
2023-05-23T19:35:43.651Z,120.20
2023-05-23T19:38:11.667Z,119.30
2023-05-23T19:40:39.285Z,119.87
2023-05-23T19:43:07.018Z,119.43
2023-05-23T19:45:34.148Z,119.40
2023-05-23T19:48:01.731Z,119.47
2023-05-23T19:50:29.904Z,119.97
2023-05-23T19:52:58.252Z,120.00
2023-05-23T19:55:25.671Z,119.50
2023-05-23T19:57:53.260Z,119.57
2023-05-23T20:00:21.453Z,119.70
2023-05-23T20:02:50.289Z,120.17
2023-05-23T20:05:17.681Z,119.70
2023-05-23T20:07:45.270Z,120.03
2023-05-23T20:10:12.893Z,119.87
2023-05-23T20:12:40.614Z,119.50
2023-05-23T20:15:08.537Z,119.60
2023-05-23T20:17:36.208Z,119.87
2023-05-23T20:20:04.711Z,120.00
2023-05-23T20:22:31.801Z,120.00
2023-05-23T20:24:58.872Z,119.70
2023-05-23T20:27:26.833Z,119.60
2023-05-23T20:29:53.875Z,120.10
2023-05-23T20:32:21.123Z,119.43
2023-05-23T20:34:48.727Z,119.97
2023-05-23T20:37:16.247Z,120.03
2023-05-23T20:39:43.863Z,119.47
2023-05-23T20:42:11.553Z,119.97
2023-05-23T20:44:39.172Z,119.87
2023-05-23T20:47:07.160Z,119.63
2023-05-23T20:49:34.943Z,119.63
2023-05-23T20:52:03.538Z,119.87
2023-05-23T20:54:34.477Z,119.50
2023-05-23T20:57:02.577Z,120.10
2023-05-23T20:59:32.686Z,119.33
2023-05-23T21:01:59.860Z,119.43
2023-05-23T21:04:27.400Z,119.80
2023-05-23T21:06:54.885Z,119.80
2023-05-23T21:09:22.463Z,119.97
2023-05-23T21:11:49.499Z,119.63
2023-05-23T21:14:16.942Z,119.73
2023-05-23T21:16:44.136Z,119.30
2023-05-23T21:19:11.279Z,119.80
2023-05-23T21:21:38.438Z,119.00
2023-05-23T21:24:06.327Z,119.40
2023-05-23T21:26:33.874Z,119.40
2023-05-23T21:29:01.228Z,120.07
2023-05-23T21:31:40.374Z,119.80
2023-05-23T21:34:22.327Z,120.20
2023-05-23T21:36:52.297Z,120.00
2023-05-23T21:39:20.090Z,119.83
2023-05-23T21:41:47.186Z,120.00
2023-05-23T21:44:15.591Z,119.50
2023-05-23T21:46:42.736Z,120.00
2023-05-23T21:49:10.367Z,120.23
2023-05-23T21:51:37.803Z,119.57
2023-05-23T21:54:05.001Z,120.20
2023-05-23T21:56:32.609Z,120.07
2023-05-23T21:58:59.630Z,120.13
2023-05-23T22:01:27.159Z,119.97
2023-05-23T22:03:54.786Z,120.10
2023-05-23T22:06:21.916Z,119.97
2023-05-23T22:08:49.001Z,119.77
2023-05-23T22:11:16.277Z,120.03
2023-05-23T22:13:43.478Z,120.20
2023-05-23T22:16:11.054Z,120.10
2023-05-23T22:18:50.927Z,120.20
2023-05-23T22:21:19.612Z,119.83
2023-05-23T22:23:47.147Z,120.23
2023-05-23T22:26:14.675Z,120.77
2023-05-23T22:28:41.678Z,120.40
2023-05-23T22:31:12.083Z,120.27
2023-05-23T22:33:41.412Z,120.20
2023-05-23T22:36:09.775Z,120.13
2023-05-23T22:38:37.688Z,120.13
2023-05-23T22:41:05.357Z,120.30
2023-05-23T22:43:32.668Z,120.10
2023-05-23T22:46:00.210Z,119.77
2023-05-23T22:48:28.090Z,120.03
2023-05-23T22:50:57.009Z,120.20
2023-05-23T22:53:24.695Z,120.37
2023-05-23T22:55:51.742Z,119.90
2023-05-23T22:58:18.827Z,120.23
2023-05-23T23:00:46.337Z,120.10
2023-05-23T23:03:15.202Z,119.93
2023-05-23T23:05:42.703Z,120.20
2023-05-23T23:08:10.486Z,120.30
2023-05-23T23:10:37.511Z,120.20
2023-05-23T23:13:05.083Z,120.20
2023-05-23T23:15:33.699Z,120.10
2023-05-23T23:18:01.178Z,120.03
2023-05-23T23:23:17.016Z,120.40
2023-05-23T23:25:44.985Z,119.90
2023-05-23T23:28:12.068Z,120.20
2023-05-23T23:30:39.657Z,119.67
2023-05-23T23:33:07.275Z,119.57
2023-05-23T23:35:35.089Z,119.80
2023-05-23T23:38:02.460Z,119.70
2023-05-23T23:40:29.560Z,120.30
2023-05-23T23:42:57.050Z,119.10
2023-05-23T23:45:24.184Z,120.37
2023-05-23T23:47:51.698Z,120.30
2023-05-23T23:50:19.886Z,120.13
2023-05-23T23:52:47.133Z,119.87
2023-05-23T23:55:14.297Z,120.20
2023-05-23T23:57:41.799Z,120.00
